createdAt,value
2018-08-31T00:02:54.130Z,10.43
2018-08-31T00:06:14.741Z,5.53
2018-08-31T00:10:27.071Z,9.35
2018-08-31T00:12:59.640Z,9.63
2018-08-31T00:15:32.428Z,9.20
2018-08-31T00:18:06.549Z,9.85
2018-08-31T00:20:40.379Z,12.07
2018-08-31T00:23:13.621Z,8.93
2018-08-31T00:26:18.315Z,8.13
2018-08-31T00:29:50.528Z,8.93
2018-08-31T00:33:19.632Z,11.30
2018-08-31T00:37:00.365Z,8.57
2018-08-31T00:41:00.606Z,10.90
2018-08-31T00:44:13.368Z,4.27
2018-08-31T00:46:46.012Z,10.93
2018-08-31T00:49:19.219Z,8.90
2018-08-31T00:51:52.081Z,10.07
2018-08-31T00:54:24.863Z,10.40
2018-08-31T00:56:57.804Z,13.67
2018-08-31T00:59:31.916Z,10.20
2018-08-31T01:02:05.328Z,10.00
2018-08-31T01:04:38.049Z,13.63
2018-08-31T01:07:11.324Z,11.07
2018-08-31T01:09:43.904Z,13.17
2018-08-31T01:12:16.875Z,9.40
2018-08-31T01:14:49.403Z,7.70
2018-08-31T01:17:22.092Z,7.30
2018-08-31T01:19:54.836Z,14.13
2018-08-31T01:22:28.440Z,7.27
2018-08-31T01:25:00.923Z,11.32
2018-08-31T01:27:33.784Z,9.73
2018-08-31T01:30:08.454Z,9.57
2018-08-31T01:32:41.248Z,8.80
2018-08-31T01:35:15.344Z,9.43
2018-08-31T01:37:47.959Z,11.98
2018-08-31T01:40:20.508Z,8.17
2018-08-31T01:42:53.544Z,6.70
2018-08-31T01:45:26.016Z,7.77
2018-08-31T01:47:58.677Z,9.97
2018-08-31T01:50:31.373Z,11.77
2018-08-31T01:53:03.972Z,12.97
2018-08-31T01:55:36.396Z,9.73
2018-08-31T01:58:09.268Z,5.95
2018-08-31T02:00:42.209Z,7.43
2018-08-31T02:03:14.722Z,9.17
2018-08-31T02:05:47.916Z,11.67
2018-08-31T02:08:20.538Z,13.50
2018-08-31T02:10:53.331Z,10.33
2018-08-31T02:13:26.533Z,6.87
2018-08-31T02:15:59.225Z,8.23
2018-08-31T02:18:31.956Z,7.73
2018-08-31T02:21:04.945Z,8.50
2018-08-31T02:23:38.431Z,9.13
2018-08-31T02:26:11.039Z,8.73
2018-08-31T02:28:44.002Z,7.80
2018-08-31T02:31:16.624Z,10.30
2018-08-31T02:33:49.152Z,9.93
2018-08-31T02:36:21.996Z,11.53
2018-08-31T02:38:54.536Z,13.70
2018-08-31T02:41:27.040Z,7.97
2018-08-31T02:44:01.221Z,10.10
2018-08-31T02:46:33.888Z,11.27
2018-08-31T02:49:07.142Z,10.87
2018-08-31T02:51:40.376Z,12.07
2018-08-31T02:54:13.014Z,15.80
2018-08-31T02:56:45.590Z,10.43
2018-08-31T02:59:18.401Z,13.47
2018-08-31T03:01:50.993Z,10.03
2018-08-31T03:04:23.785Z,7.30
2018-08-31T03:06:57.677Z,10.60
2018-08-31T03:09:31.080Z,13.67
2018-08-31T03:12:03.717Z,16.17
2018-08-31T03:14:36.700Z,14.70
2018-08-31T03:17:09.422Z,15.32
2018-08-31T03:19:41.893Z,12.43
2018-08-31T03:22:17.729Z,13.37
2018-08-31T03:24:50.295Z,14.67
2018-08-31T03:27:23.145Z,12.43
2018-08-31T03:29:57.876Z,14.67
2018-08-31T03:32:31.164Z,12.00
2018-08-31T03:35:03.897Z,14.10
2018-08-31T03:37:38.767Z,10.87
2018-08-31T03:40:11.319Z,13.13
2018-08-31T03:42:43.856Z,12.63
2018-08-31T03:45:16.701Z,14.83
2018-08-31T03:47:49.377Z,13.60
2018-08-31T03:50:22.668Z,20.10
2018-08-31T03:52:55.412Z,12.60
2018-08-31T03:55:29.145Z,17.53
2018-08-31T03:58:01.657Z,12.03
2018-08-31T04:00:34.712Z,12.23
2018-08-31T04:03:07.156Z,11.03
2018-08-31T04:05:39.794Z,12.33
2018-08-31T04:08:13.481Z,14.93
2018-08-31T04:10:46.463Z,14.97
2018-08-31T04:13:19.606Z,11.67
2018-08-31T04:15:52.868Z,13.10
2018-08-31T04:18:25.536Z,14.73
2018-08-31T04:20:58.105Z,14.67
2018-08-31T04:23:30.871Z,12.50
2018-08-31T04:26:04.889Z,15.17
2018-08-31T04:28:38.075Z,11.82
2018-08-31T04:31:10.842Z,7.27
2018-08-31T04:33:43.359Z,10.93
2018-08-31T04:36:15.961Z,11.50
2018-08-31T04:38:51.012Z,11.67
2018-08-31T04:41:23.659Z,13.10
2018-08-31T04:43:56.173Z,11.77
2018-08-31T04:46:32.989Z,12.20
2018-08-31T04:49:05.927Z,15.60
2018-08-31T04:51:38.452Z,13.10
2018-08-31T04:54:11.356Z,9.77
2018-08-31T04:56:43.908Z,8.80
2018-08-31T04:59:17.405Z,11.27
2018-08-31T05:01:51.238Z,6.93
2018-08-31T05:04:24.835Z,11.00
2018-08-31T05:06:57.466Z,14.63
2018-08-31T05:09:31.975Z,11.33
2018-08-31T05:12:04.817Z,9.40
2018-08-31T05:14:37.620Z,17.03
2018-08-31T05:17:10.506Z,11.30
2018-08-31T05:19:43.228Z,11.27
2018-08-31T05:22:16.785Z,11.53
2018-08-31T05:24:50.757Z,11.77
2018-08-31T05:27:23.816Z,12.23
2018-08-31T05:29:57.405Z,12.50
2018-08-31T05:32:32.210Z,13.90
2018-08-31T05:35:05.989Z,15.80
2018-08-31T05:37:40.313Z,14.67
2018-08-31T05:40:13.260Z,16.83
2018-08-31T05:42:47.688Z,12.03
2018-08-31T05:45:20.293Z,11.63
2018-08-31T05:47:53.099Z,13.73
2018-08-31T05:50:26.095Z,13.63
2018-08-31T05:52:58.589Z,8.73
2018-08-31T05:55:33.284Z,10.87
2018-08-31T05:58:06.848Z,15.87
2018-08-31T06:00:39.709Z,16.93
2018-08-31T06:03:14.464Z,10.80
2018-08-31T06:05:47.296Z,9.73
2018-08-31T06:08:20.076Z,12.63
2018-08-31T06:10:57.634Z,12.50
2018-08-31T06:13:30.404Z,12.70
2018-08-31T06:16:02.852Z,13.10
2018-08-31T06:18:35.688Z,14.67
2018-08-31T06:21:09.383Z,8.20
2018-08-31T06:23:42.326Z,12.17
2018-08-31T06:26:16.484Z,13.93
2018-08-31T06:28:50.708Z,14.43
2018-08-31T06:31:24.526Z,11.05
2018-08-31T06:33:58.222Z,10.77
2018-08-31T06:36:33.404Z,15.23
2018-08-31T06:39:08.765Z,13.07
2018-08-31T06:41:41.328Z,10.23
2018-08-31T06:44:13.989Z,9.37
2018-08-31T06:46:48.913Z,11.48
2018-08-31T06:49:21.563Z,12.40
2018-08-31T06:51:54.773Z,12.48
2018-08-31T06:54:28.601Z,12.75
2018-08-31T06:57:01.095Z,14.70
2018-08-31T06:59:34.654Z,12.93
2018-08-31T07:02:09.010Z,14.30
2018-08-31T07:04:42.537Z,10.87
2018-08-31T07:07:15.134Z,9.80
2018-08-31T07:09:48.877Z,9.13
2018-08-31T07:12:21.639Z,11.13
2018-08-31T07:14:53.927Z,10.07
2018-08-31T07:17:26.925Z,13.65
2018-08-31T07:19:59.680Z,8.63
2018-08-31T07:22:32.273Z,8.63
2018-08-31T07:25:05.196Z,9.57
2018-08-31T07:27:37.877Z,9.83
2018-08-31T07:30:10.276Z,12.57
2018-08-31T07:32:45.878Z,10.13
2018-08-31T07:35:19.657Z,10.73
2018-08-31T07:37:52.195Z,12.83
2018-08-31T07:40:26.265Z,9.83
2018-08-31T07:42:59.224Z,8.88
2018-08-31T07:45:31.779Z,11.40
2018-08-31T07:48:04.401Z,9.97
2018-08-31T07:50:38.232Z,9.20
2018-08-31T07:53:14.845Z,8.03
2018-08-31T07:55:55.497Z,7.83
2018-08-31T07:58:29.070Z,13.47
2018-08-31T08:01:05.785Z,9.03
2018-08-31T08:03:40.036Z,7.43
2018-08-31T08:06:13.484Z,5.00
2018-08-31T08:08:47.053Z,7.30
2018-08-31T08:11:21.545Z,5.57
2018-08-31T08:13:55.021Z,6.67
2018-08-31T08:16:33.677Z,5.07
2018-08-31T08:19:09.247Z,4.93
2018-08-31T08:21:43.488Z,3.50
2018-08-31T08:24:17.415Z,6.33
2018-08-31T08:26:50.577Z,9.97
2018-08-31T08:29:24.324Z,7.60
2018-08-31T08:31:59.664Z,7.43
2018-08-31T08:34:33.188Z,5.30
2018-08-31T08:37:05.865Z,6.97
2018-08-31T08:39:43.296Z,5.57
2018-08-31T08:42:17.195Z,6.07
2018-08-31T08:44:50.888Z,4.40
2018-08-31T08:47:25.504Z,4.07
2018-08-31T08:49:58.704Z,6.50
2018-08-31T08:52:31.240Z,6.03
2018-08-31T08:55:05.603Z,3.60
2018-08-31T08:57:38.093Z,10.57
2018-08-31T09:00:10.673Z,7.43
2018-08-31T09:02:45.892Z,6.07
2018-08-31T09:05:18.529Z,6.20
2018-08-31T09:07:52.060Z,5.13
2018-08-31T09:10:29.785Z,6.20
2018-08-31T09:13:03.899Z,4.13
2018-08-31T09:15:37.397Z,7.20
2018-08-31T09:18:12.448Z,5.87
2018-08-31T09:20:45.776Z,8.47
2018-08-31T09:23:21.247Z,8.17
2018-08-31T09:25:56.988Z,5.17
2018-08-31T09:28:30.906Z,2.73
2018-08-31T09:31:13.508Z,6.23
2018-08-31T09:33:51.758Z,3.97
2018-08-31T09:36:24.370Z,4.57
2018-08-31T09:38:58.562Z,7.50
2018-08-31T09:41:32.550Z,4.90
2018-08-31T09:44:05.989Z,6.33
2018-08-31T09:46:39.035Z,5.20
2018-08-31T09:49:15.320Z,8.10
2018-08-31T09:51:48.941Z,5.20
2018-08-31T09:54:27.784Z,4.27
2018-08-31T09:57:03.455Z,5.13
2018-08-31T09:59:36.680Z,3.90
2018-08-31T10:02:17.925Z,2.80
2018-08-31T10:04:52.397Z,3.37
2018-08-31T10:07:25.212Z,3.43
2018-08-31T10:10:02.119Z,4.63
2018-08-31T10:12:37.375Z,4.87
2018-08-31T10:15:12.062Z,2.87
2018-08-31T10:17:49.167Z,4.03
2018-08-31T10:20:22.877Z,3.67
2018-08-31T10:22:55.461Z,1.80
2018-08-31T10:25:28.275Z,3.83
2018-08-31T10:28:00.874Z,3.90
2018-08-31T10:30:34.607Z,2.27
2018-08-31T10:33:15.710Z,5.60
2018-08-31T10:35:53.033Z,5.22
2018-08-31T10:38:26.483Z,6.00
2018-08-31T10:41:00.209Z,4.10
2018-08-31T10:43:34.658Z,6.90
2018-08-31T10:46:08.180Z,4.60
2018-08-31T10:48:41.922Z,5.10
2018-08-31T10:51:15.262Z,6.20
2018-08-31T10:53:47.909Z,3.83
2018-08-31T10:56:21.650Z,4.10
2018-08-31T10:58:55.744Z,4.17
2018-08-31T11:01:28.339Z,5.07
2018-08-31T11:04:02.627Z,4.10
2018-08-31T11:06:38.148Z,5.53
2018-08-31T11:09:10.713Z,6.50
2018-08-31T11:11:45.813Z,5.53
2018-08-31T11:14:19.304Z,5.43
2018-08-31T11:16:56.644Z,3.90
2018-08-31T11:19:30.711Z,5.70
2018-08-31T11:22:09.190Z,5.77
2018-08-31T11:24:48.035Z,4.90
2018-08-31T11:27:21.572Z,4.57
2018-08-31T11:29:55.408Z,7.00
2018-08-31T11:32:29.830Z,8.03
2018-08-31T11:35:04.181Z,4.20
2018-08-31T11:37:37.480Z,5.27
2018-08-31T11:40:14.952Z,5.57
2018-08-31T11:42:48.180Z,4.57
2018-08-31T11:45:22.135Z,5.67
2018-08-31T11:48:02.112Z,4.23
2018-08-31T11:50:35.827Z,6.93
2018-08-31T11:53:09.236Z,3.70
2018-08-31T11:55:42.324Z,4.60
2018-08-31T11:58:15.479Z,8.50
2018-08-31T12:00:50.101Z,3.63
2018-08-31T12:03:24.315Z,5.00
2018-08-31T12:05:58.354Z,3.40
2018-08-31T12:08:37.695Z,5.00
2018-08-31T12:11:15.153Z,4.23
2018-08-31T12:13:50.756Z,3.20
2018-08-31T12:16:25.770Z,5.60
2018-08-31T12:19:02.141Z,4.50
2018-08-31T12:21:36.228Z,4.50
2018-08-31T12:24:10.823Z,6.73
2018-08-31T12:26:44.884Z,4.78
2018-08-31T12:29:18.570Z,4.10
2018-08-31T12:31:53.160Z,2.67
2018-08-31T12:34:26.452Z,4.03
2018-08-31T12:37:02.821Z,4.37
2018-08-31T12:39:38.564Z,5.37
2018-08-31T12:42:13.021Z,6.23
2018-08-31T12:44:51.065Z,4.23
2018-08-31T12:47:26.584Z,2.47
2018-08-31T12:50:02.136Z,4.87
2018-08-31T12:52:38.081Z,5.20
2018-08-31T12:55:12.024Z,2.57
2018-08-31T12:57:47.419Z,5.50
2018-08-31T13:00:22.789Z,3.63
2018-08-31T13:02:58.583Z,5.17
2018-08-31T13:05:33.384Z,4.17
2018-08-31T13:08:06.874Z,3.47
2018-08-31T13:10:41.938Z,3.57
2018-08-31T13:13:18.838Z,2.27
2018-08-31T13:15:54.202Z,3.37
2018-08-31T13:18:27.123Z,1.63
2018-08-31T13:21:00.713Z,2.27
2018-08-31T13:23:42.907Z,2.83
2018-08-31T13:26:16.481Z,3.60
2018-08-31T13:31:30.678Z,3.35
2018-08-31T13:34:03.893Z,4.53
2018-08-31T13:36:37.814Z,4.53
2018-08-31T13:39:14.894Z,3.90
2018-08-31T13:41:48.745Z,2.13
2018-08-31T13:44:24.469Z,4.10
2018-08-31T13:47:01.413Z,3.62
2018-08-31T13:49:37.356Z,2.03
2018-08-31T13:52:11.164Z,5.40
2018-08-31T13:54:47.217Z,4.97
2018-08-31T13:57:23.036Z,3.30
2018-08-31T13:59:55.734Z,3.17
2018-08-31T14:02:29.576Z,6.67
2018-08-31T14:05:08.383Z,3.58
2018-08-31T14:07:45.216Z,4.07
2018-08-31T14:10:19.455Z,4.10
2018-08-31T14:12:55.492Z,5.10
2018-08-31T14:15:28.511Z,2.70
2018-08-31T14:18:01.360Z,2.87
2018-08-31T14:20:33.852Z,2.00
2018-08-31T14:23:06.727Z,4.80
2018-08-31T14:25:40.304Z,4.67
2018-08-31T14:28:12.929Z,3.33
2018-08-31T14:30:47.273Z,5.37
2018-08-31T14:33:20.217Z,2.90
2018-08-31T14:35:53.609Z,4.30
2018-08-31T14:38:26.328Z,5.00
2018-08-31T14:40:59.942Z,3.37
2018-08-31T14:43:32.878Z,5.07
2018-08-31T14:46:09.855Z,3.63
2018-08-31T14:48:56.855Z,5.47
2018-08-31T14:51:38.693Z,4.67
2018-08-31T14:54:13.318Z,2.87
2018-08-31T14:56:46.915Z,5.27
2018-08-31T14:59:19.861Z,5.60
2018-08-31T15:01:52.363Z,4.07
2018-08-31T15:04:28.651Z,6.43
2018-08-31T15:07:03.401Z,2.30
2018-08-31T15:09:36.596Z,4.33
2018-08-31T15:12:11.066Z,4.70
2018-08-31T15:14:48.257Z,3.73
2018-08-31T15:17:29.889Z,4.77
2018-08-31T15:20:05.130Z,4.00
2018-08-31T15:22:47.585Z,4.40
2018-08-31T15:25:23.477Z,3.93
2018-08-31T15:27:59.227Z,4.10
2018-08-31T15:30:32.762Z,3.40
2018-08-31T15:33:06.716Z,1.60
2018-08-31T15:35:42.077Z,3.80
2018-08-31T15:38:18.893Z,4.53
2018-08-31T15:40:54.297Z,1.87
2018-08-31T15:43:29.804Z,3.90
2018-08-31T15:46:03.261Z,4.57
2018-08-31T15:48:37.633Z,2.73
2018-08-31T15:51:13.647Z,3.87
2018-08-31T15:53:48.592Z,2.40
2018-08-31T15:56:25.082Z,4.70
2018-08-31T15:59:00.498Z,2.53
2018-08-31T16:01:35.820Z,4.43
2018-08-31T16:04:13.394Z,2.67
2018-08-31T16:06:45.862Z,3.73
2018-08-31T16:09:19.730Z,2.23
2018-08-31T16:11:54.843Z,4.03
2018-08-31T16:14:29.945Z,2.80
2018-08-31T16:17:04.252Z,2.23
2018-08-31T16:19:45.584Z,3.33
2018-08-31T16:22:18.341Z,3.33
2018-08-31T16:24:54.001Z,3.27
2018-08-31T16:27:31.174Z,3.10
2018-08-31T16:30:19.295Z,4.83
2018-08-31T16:32:53.064Z,3.27
2018-08-31T16:35:26.979Z,4.23
2018-08-31T16:38:04.323Z,3.80
2018-08-31T16:40:40.700Z,2.93
2018-08-31T16:43:22.213Z,3.65
2018-08-31T16:45:57.378Z,2.00
2018-08-31T16:48:31.636Z,2.17
2018-08-31T16:51:05.061Z,3.03
2018-08-31T16:53:39.930Z,1.60
2018-08-31T16:56:12.659Z,2.23
2018-08-31T16:58:46.312Z,3.43
2018-08-31T17:01:21.261Z,1.63
2018-08-31T17:03:56.820Z,3.27
2018-08-31T17:06:30.684Z,3.77
2018-08-31T17:09:08.364Z,3.10
2018-08-31T17:11:42.351Z,3.13
2018-08-31T17:14:15.846Z,3.10
2018-08-31T17:16:51.206Z,2.47
2018-08-31T17:19:24.665Z,1.97
2018-08-31T17:22:02.270Z,2.30
2018-08-31T17:24:34.873Z,2.90
2018-08-31T17:27:13.841Z,4.97
2018-08-31T17:29:48.656Z,4.87
2018-08-31T17:32:28.086Z,4.67
2018-08-31T17:35:07.549Z,5.07
2018-08-31T17:37:41.777Z,2.60
2018-08-31T17:40:19.758Z,5.00
2018-08-31T17:43:00.080Z,2.70
2018-08-31T17:45:39.293Z,4.30
2018-08-31T17:48:16.617Z,2.10
2018-08-31T17:50:50.657Z,2.17
2018-08-31T17:53:26.073Z,2.63
2018-08-31T17:56:00.552Z,4.23
2018-08-31T17:58:34.793Z,3.78
2018-08-31T18:01:15.702Z,4.13
2018-08-31T18:03:49.359Z,7.33
2018-08-31T18:06:27.290Z,5.47
2018-08-31T18:09:03.576Z,2.73
2018-08-31T18:11:39.800Z,4.10
2018-08-31T18:14:15.843Z,1.87
2018-08-31T18:16:48.517Z,4.70
2018-08-31T18:19:31.840Z,5.73
2018-08-31T18:22:06.343Z,3.13
2018-08-31T18:24:40.815Z,4.63
2018-08-31T18:27:14.286Z,4.27
2018-08-31T18:29:48.066Z,3.30
2018-08-31T18:32:23.681Z,2.33
2018-08-31T18:34:57.948Z,5.10
2018-08-31T18:37:31.421Z,4.83
2018-08-31T18:40:07.311Z,3.85
2018-08-31T18:42:43.065Z,4.07
2018-08-31T18:45:16.499Z,5.03
2018-08-31T18:47:50.069Z,3.27
2018-08-31T18:50:25.002Z,3.77
2018-08-31T18:52:59.760Z,2.73
2018-08-31T18:55:35.581Z,3.60
2018-08-31T18:58:11.542Z,3.00
2018-08-31T19:00:46.732Z,3.00
2018-08-31T19:03:20.610Z,5.47
2018-08-31T19:05:53.349Z,2.37
2018-08-31T19:08:25.781Z,5.07
2018-08-31T19:11:01.845Z,8.30
2018-08-31T19:13:42.897Z,2.33
2018-08-31T19:16:16.420Z,4.07
2018-08-31T19:18:50.600Z,4.27
2018-08-31T19:21:25.584Z,3.62
2018-08-31T19:23:59.004Z,3.37
2018-08-31T19:26:32.851Z,3.13
2018-08-31T19:29:05.685Z,4.70
2018-08-31T19:31:42.852Z,9.77
2018-08-31T19:34:15.612Z,4.53
2018-08-31T19:36:48.494Z,2.53
2018-08-31T19:39:22.764Z,5.20
2018-08-31T19:41:58.796Z,3.00
2018-08-31T19:44:36.082Z,3.07
2018-08-31T19:47:11.575Z,3.33
2018-08-31T19:49:45.824Z,3.80
2018-08-31T19:52:20.988Z,4.63
2018-08-31T19:55:01.965Z,6.07
2018-08-31T19:57:38.010Z,5.50
2018-08-31T20:00:30.070Z,4.63
2018-08-31T20:03:16.400Z,4.40
2018-08-31T20:05:54.391Z,3.87
2018-08-31T20:08:32.100Z,4.37
2018-08-31T20:11:05.536Z,4.90
2018-08-31T20:13:41.728Z,5.93
2018-08-31T20:16:16.484Z,6.18
2018-08-31T20:18:52.364Z,4.27
2018-08-31T20:21:25.760Z,3.83
2018-08-31T20:23:58.433Z,3.83
2018-08-31T20:26:32.287Z,5.85
2018-08-31T20:29:05.706Z,5.17
2018-08-31T20:31:41.118Z,3.37
2018-08-31T20:34:14.416Z,5.60
2018-08-31T20:36:47.285Z,3.60
2018-08-31T20:39:20.836Z,4.27
2018-08-31T20:41:55.681Z,7.33
2018-08-31T20:44:31.855Z,3.17
2018-08-31T20:47:04.817Z,4.40
2018-08-31T20:49:43.758Z,4.28
2018-08-31T20:52:17.224Z,3.47
2018-08-31T20:54:51.625Z,5.27
2018-08-31T20:57:26.048Z,2.93
2018-08-31T21:00:04.334Z,2.67
2018-08-31T21:02:38.541Z,2.93
2018-08-31T21:05:12.565Z,4.83
2018-08-31T21:07:46.697Z,3.73
2018-08-31T21:10:23.377Z,5.23
2018-08-31T21:12:56.225Z,5.60
2018-08-31T21:15:30.169Z,4.35
2018-08-31T21:18:05.200Z,5.77
2018-08-31T21:20:39.180Z,4.30
2018-08-31T21:23:12.409Z,5.57
2018-08-31T21:25:44.807Z,3.57
2018-08-31T21:28:22.548Z,3.73
2018-08-31T21:30:57.708Z,4.13
2018-08-31T21:33:32.820Z,7.47
2018-08-31T21:36:08.282Z,6.73
2018-08-31T21:38:44.653Z,6.90
2018-08-31T21:41:19.025Z,7.37
2018-08-31T21:43:51.713Z,5.13
2018-08-31T21:46:25.512Z,3.57
2018-08-31T21:48:58.301Z,2.93
2018-08-31T21:51:32.333Z,4.20
2018-08-31T21:54:05.825Z,6.00
2018-08-31T21:56:38.458Z,5.40
2018-08-31T21:59:13.496Z,5.30
2018-08-31T22:01:53.036Z,4.07
2018-08-31T22:04:26.051Z,6.23
2018-08-31T22:06:59.709Z,5.50
2018-08-31T22:09:33.889Z,4.70
2018-08-31T22:12:08.433Z,5.33
2018-08-31T22:14:41.427Z,5.15
2018-08-31T22:17:18.467Z,4.68
2018-08-31T22:19:54.414Z,3.93
2018-08-31T22:22:27.163Z,4.13
2018-08-31T22:25:04.311Z,3.67
2018-08-31T22:27:36.865Z,7.87
2018-08-31T22:30:10.673Z,7.20
2018-08-31T22:32:47.905Z,6.43
2018-08-31T22:35:21.544Z,6.40
2018-08-31T22:37:54.066Z,5.70
2018-08-31T22:40:31.239Z,10.10
2018-08-31T22:43:06.697Z,9.10
2018-08-31T22:45:44.036Z,7.43
2018-08-31T22:48:18.089Z,4.77
2018-08-31T22:50:51.194Z,7.10
2018-08-31T22:53:23.899Z,7.77
2018-08-31T22:56:00.669Z,5.70
2018-08-31T22:58:33.972Z,4.93
2018-08-31T23:01:07.917Z,7.27
2018-08-31T23:03:41.192Z,6.23
2018-08-31T23:06:13.940Z,7.03
2018-08-31T23:08:49.503Z,7.57
2018-08-31T23:11:23.240Z,6.32
2018-08-31T23:13:56.122Z,5.37
2018-08-31T23:16:30.378Z,5.33
2018-08-31T23:19:03.449Z,6.03
2018-08-31T23:21:37.429Z,6.03
2018-08-31T23:24:11.551Z,9.10
2018-08-31T23:26:44.185Z,8.27
2018-08-31T23:29:17.316Z,6.33
2018-08-31T23:31:50.020Z,5.63
2018-08-31T23:34:22.536Z,6.27
2018-08-31T23:36:57.415Z,6.97
2018-08-31T23:39:30.012Z,6.00
2018-08-31T23:42:04.232Z,6.47
2018-08-31T23:44:38.309Z,7.43
2018-08-31T23:47:11.259Z,9.82
2018-08-31T23:49:46.690Z,6.60
2018-08-31T23:52:22.913Z,5.83
2018-08-31T23:55:05.478Z,5.67
2018-08-31T23:57:40.216Z,7.73
